Time;durP1;ratioP1;P1;durP2;ratioP2;P2;SDS_P1;SDS_P2;PMS_P1;PMS_P2;Temp;Humidity;BMP_temperature;BMP_pressure;BME280_temperature;BME280_humidity;BME280_pressure;Samples;Min_cycle;Max_cycle;Signal;HPM_P1;HPM_P2
2023/12/09 00:00:55;;;;;;;33.28;13.45;;;;;;;;;;5010580;28;20584;-61
2023/12/09 00:03:20;;;;;;;32.00;13.32;;;;;;;;;;5009132;28;20030;-61
2023/12/09 00:05:45;;;;;;;30.17;12.75;;;;;;;;;;5010740;28;20034;-60
2023/12/09 00:08:10;;;;;;;29.13;11.88;;;;;;;;;;5010946;28;20568;-62
2023/12/09 00:10:35;;;;;;;31.67;14.33;;;;;;;;;;5019163;28;20032;-61
2023/12/09 00:13:00;;;;;;;30.38;12.98;;;;;;;;;;5029974;28;20024;-61
2023/12/09 00:15:26;;;;;;;31.85;13.80;;;;;;;;;;5030426;28;20037;-61
2023/12/09 00:17:51;;;;;;;33.40;14.80;;;;;;;;;;5030431;28;20688;-61
2023/12/09 00:20:16;;;;;;;32.93;13.47;;;;;;;;;;5030298;28;20050;-61
2023/12/09 00:22:41;;;;;;;29.50;12.80;;;;;;;;;;5029987;28;20017;-61
2023/12/09 00:25:07;;;;;;;29.60;12.60;;;;;;;;;;5030406;28;20026;-61
2023/12/09 00:27:34;;;;;;;30.73;13.32;;;;;;;;;;5029380;28;20029;-59
2023/12/09 00:29:59;;;;;;;31.88;13.80;;;;;;;;;;5028611;28;20510;-62
2023/12/09 00:32:24;;;;;;;28.33;12.60;;;;;;;;;;5030058;28;20112;-60
2023/12/09 00:34:49;;;;;;;32.20;13.07;;;;;;;;;;5030209;28;20033;-59
2023/12/09 00:37:15;;;;;;;33.25;13.32;;;;;;;;;;5018287;28;20026;-60
2023/12/09 00:39:40;;;;;;;29.85;13.32;;;;;;;;;;5010537;28;20494;-61
2023/12/09 00:42:05;;;;;;;29.57;13.73;;;;;;;;;;5009921;28;20025;-61
2023/12/09 00:44:30;;;;;;;32.30;13.23;;;;;;;;;;5010434;28;20101;-61
2023/12/09 00:46:55;;;;;;;32.47;13.85;;;;;;;;;;5010105;28;20025;-61
2023/12/09 00:49:20;;;;;;;30.60;13.38;;;;;;;;;;5012997;28;20014;-61
2023/12/09 00:51:46;;;;;;;32.50;13.80;;;;;;;;;;5013455;28;20057;-61
2023/12/09 00:54:11;;;;;;;27.80;12.50;;;;;;;;;;5014325;28;20470;-61
2023/12/09 00:56:36;;;;;;;27.90;12.50;;;;;;;;;;5013790;28;20037;-61
2023/12/09 00:59:02;;;;;;;29.80;13.32;;;;;;;;;;5013881;28;20022;-60
2023/12/09 01:01:27;;;;;;;29.05;12.25;;;;;;;;;;5013695;28;20044;-61
2023/12/09 01:03:52;;;;;;;31.07;13.60;;;;;;;;;;5014151;28;20381;-61
2023/12/09 01:06:17;;;;;;;28.65;13.13;;;;;;;;;;5013829;28;20080;-61
2023/12/09 01:08:43;;;;;;;27.98;11.75;;;;;;;;;;5014522;28;20562;-61
2023/12/09 01:11:08;;;;;;;33.55;13.38;;;;;;;;;;5015829;28;20057;-61
2023/12/09 01:13:33;;;;;;;31.67;13.50;;;;;;;;;;5017845;28;20026;-61
2023/12/09 01:15:58;;;;;;;28.87;12.37;;;;;;;;;;5037006;28;20025;-60
2023/12/09 01:18:23;;;;;;;31.23;12.83;;;;;;;;;;5039001;28;20101;-61
2023/12/09 01:20:49;;;;;;;29.83;12.47;;;;;;;;;;5039370;28;20468;-61
2023/12/09 01:23:14;;;;;;;27.43;11.73;;;;;;;;;;5040553;28;20052;-61
2023/12/09 01:25:39;;;;;;;29.05;12.07;;;;;;;;;;5042656;28;20018;-61
2023/12/09 01:28:04;;;;;;;29.85;13.48;;;;;;;;;;5038534;28;20529;-60
2023/12/09 01:30:29;;;;;;;33.57;13.53;;;;;;;;;;5033178;28;20079;-61
2023/12/09 01:32:54;;;;;;;29.23;12.30;;;;;;;;;;5032691;28;20021;-61
2023/12/09 01:35:21;;;;;;;28.80;12.65;;;;;;;;;;5033398;28;20533;-61
2023/12/09 01:37:46;;;;;;;29.35;12.90;;;;;;;;;;5033136;28;20469;-61
2023/12/09 01:40:15;;;;;;;30.77;13.57;;;;;;;;;;5033073;28;20053;-61
2023/12/09 01:42:40;;;;;;;30.20;12.63;;;;;;;;;;5032548;28;20026;-61
2023/12/09 01:45:06;;;;;;;30.50;13.00;;;;;;;;;;5032803;28;20477;-60
2023/12/09 01:47:31;;;;;;;30.33;12.77;;;;;;;;;;5033053;28;20124;-61
2023/12/09 01:49:56;;;;;;;32.23;12.70;;;;;;;;;;5032860;28;20029;-61
2023/12/09 01:52:21;;;;;;;31.38;13.18;;;;;;;;;;5032328;28;20077;-61
2023/12/09 01:54:46;;;;;;;32.93;12.47;;;;;;;;;;5032680;28;20030;-60
2023/12/09 01:57:11;;;;;;;31.10;12.30;;;;;;;;;;5030938;28;20048;-60
2023/12/09 01:59:36;;;;;;;28.80;11.87;;;;;;;;;;5031669;28;20057;-60
2023/12/09 02:02:02;;;;;;;30.83;12.98;;;;;;;;;;5031617;28;20033;-61
2023/12/09 02:04:27;;;;;;;28.47;12.27;;;;;;;;;;5032907;28;20022;-61
2023/12/09 02:06:52;;;;;;;33.97;12.65;;;;;;;;;;5032622;28;20370;-60
2023/12/09 02:09:18;;;;;;;31.30;12.43;;;;;;;;;;5032373;28;20033;-60
2023/12/09 02:11:50;;;;;;;30.80;12.82;;;;;;;;;;5031719;28;20048;-61
2023/12/09 02:14:21;;;;;;;33.55;13.43;;;;;;;;;;5032197;28;20033;-60
2023/12/09 02:16:51;;;;;;;31.42;13.00;;;;;;;;;;5032124;28;20021;-61
2023/12/09 02:19:17;;;;;;;29.33;11.90;;;;;;;;;;5032365;28;20013;-60
2023/12/09 02:22:02;;;;;;;31.40;13.32;;;;;;;;;;5030341;28;20090;-59
2023/12/09 02:24:27;;;;;;;27.80;11.88;;;;;;;;;;5031948;28;20052;-61
2023/12/09 02:26:52;;;;;;;31.70;13.52;;;;;;;;;;5032165;28;20025;-61
2023/12/09 02:29:18;;;;;;;31.77;12.82;;;;;;;;;;5032280;28;20188;-61
2023/12/09 02:31:45;;;;;;;28.02;12.55;;;;;;;;;;5031330;28;20029;-61
2023/12/09 02:34:10;;;;;;;32.10;12.93;;;;;;;;;;5030256;28;20036;-61
2023/12/09 02:36:36;;;;;;;29.20;12.38;;;;;;;;;;5029780;28;20041;-60
2023/12/09 02:39:03;;;;;;;31.20;13.07;;;;;;;;;;5032049;28;20018;-61
2023/12/09 02:41:29;;;;;;;29.33;11.85;;;;;;;;;;5031673;28;20064;-61
2023/12/09 02:43:55;;;;;;;30.75;12.82;;;;;;;;;;5031969;28;20013;-61
2023/12/09 02:46:21;;;;;;;32.33;13.73;;;;;;;;;;5031810;28;20075;-61
2023/12/09 02:48:46;;;;;;;33.47;13.55;;;;;;;;;;5031712;28;20038;-61
2023/12/09 02:51:11;;;;;;;31.98;13.48;;;;;;;;;;5031511;28;20021;-61
2023/12/09 02:53:36;;;;;;;32.27;12.57;;;;;;;;;;5032145;28;20160;-59
2023/12/09 02:56:01;;;;;;;33.50;14.07;;;;;;;;;;5031218;28;20395;-61
2023/12/09 02:58:26;;;;;;;33.57;13.60;;;;;;;;;;5030114;28;20485;-61
2023/12/09 03:00:52;;;;;;;31.60;12.75;;;;;;;;;;5030291;28;20498;-61
2023/12/09 03:03:17;;;;;;;33.70;13.60;;;;;;;;;;5030336;28;20044;-61
2023/12/09 03:05:42;;;;;;;31.85;12.52;;;;;;;;;;5030306;28;20535;-62
2023/12/09 03:08:07;;;;;;;34.22;14.05;;;;;;;;;;5031391;28;20087;-61
2023/12/09 03:10:32;;;;;;;34.05;13.63;;;;;;;;;;5031019;28;20034;-61
2023/12/09 03:12:58;;;;;;;34.73;13.27;;;;;;;;;;5030480;28;20021;-58
2023/12/09 03:15:23;;;;;;;35.42;13.20;;;;;;;;;;5031161;28;20028;-61
2023/12/09 03:17:48;;;;;;;36.80;13.68;;;;;;;;;;5031119;28;20527;-61
2023/12/09 03:20:13;;;;;;;34.77;13.83;;;;;;;;;;5031674;28;20053;-61
2023/12/09 03:22:38;;;;;;;35.83;13.77;;;;;;;;;;5030739;28;20025;-61
2023/12/09 03:25:04;;;;;;;36.60;13.65;;;;;;;;;;5031196;28;20021;-62
2023/12/09 03:27:29;;;;;;;32.90;13.50;;;;;;;;;;5031219;28;20025;-61
2023/12/09 03:29:54;;;;;;;35.00;13.48;;;;;;;;;;5030845;28;20026;-61
2023/12/09 03:32:19;;;;;;;35.27;13.93;;;;;;;;;;5030538;28;20056;-61
2023/12/09 03:34:45;;;;;;;37.40;14.43;;;;;;;;;;5031198;28;20444;-62
2023/12/09 03:37:10;;;;;;;33.20;13.50;;;;;;;;;;5031511;28;20036;-61
2023/12/09 03:39:35;;;;;;;31.90;12.70;;;;;;;;;;5031545;28;20540;-61
2023/12/09 03:42:00;;;;;;;36.92;13.93;;;;;;;;;;5031545;28;20063;-61
2023/12/09 03:44:25;;;;;;;31.40;13.45;;;;;;;;;;5036188;28;20496;-61
2023/12/09 03:46:51;;;;;;;35.17;14.40;;;;;;;;;;5030350;28;20109;-61
2023/12/09 03:49:16;;;;;;;33.58;13.82;;;;;;;;;;5036272;28;20037;-61
2023/12/09 03:51:41;;;;;;;33.90;14.20;;;;;;;;;;5039785;28;20541;-63
2023/12/09 03:54:06;;;;;;;34.87;14.17;;;;;;;;;;5037411;28;20053;-61
2023/12/09 03:56:31;;;;;;;33.90;13.23;;;;;;;;;;5033316;28;20362;-61
2023/12/09 03:58:56;;;;;;;30.05;12.27;;;;;;;;;;5031017;28;20111;-62
2023/12/09 04:01:24;;;;;;;33.95;13.70;;;;;;;;;;5030050;28;20076;-61
2023/12/09 04:03:49;;;;;;;34.83;14.60;;;;;;;;;;5030663;28;20479;-61
2023/12/09 04:06:15;;;;;;;32.97;12.70;;;;;;;;;;5030521;28;20056;-61
2023/12/09 04:08:40;;;;;;;32.38;13.20;;;;;;;;;;5030214;28;20021;-61
2023/12/09 04:11:05;;;;;;;35.55;13.90;;;;;;;;;;5030220;28;20024;-60
2023/12/09 04:13:30;;;;;;;32.55;13.23;;;;;;;;;;5031198;28;20112;-61
2023/12/09 04:15:55;;;;;;;37.93;14.67;;;;;;;;;;5031220;28;20037;-61
2023/12/09 04:18:21;;;;;;;33.87;13.33;;;;;;;;;;5030661;28;20419;-61
2023/12/09 04:20:46;;;;;;;29.50;12.40;;;;;;;;;;5030619;28;20013;-60
2023/12/09 04:23:11;;;;;;;33.17;13.70;;;;;;;;;;5029884;28;20507;-60
2023/12/09 04:25:36;;;;;;;31.93;13.50;;;;;;;;;;5035730;28;20021;-61
2023/12/09 04:28:01;;;;;;;31.57;12.80;;;;;;;;;;5034831;28;20006;-60
2023/12/09 04:30:27;;;;;;;33.63;12.73;;;;;;;;;;5034503;28;20055;-61
2023/12/09 04:32:52;;;;;;;35.05;14.23;;;;;;;;;;5033951;28;20021;-61
2023/12/09 04:35:17;;;;;;;33.25;13.90;;;;;;;;;;5034322;28;20071;-61
2023/12/09 04:37:42;;;;;;;35.92;14.52;;;;;;;;;;5033932;28;20076;-61
2023/12/09 04:40:11;;;;;;;36.20;14.20;;;;;;;;;;5034051;28;20404;-61
2023/12/09 04:42:37;;;;;;;36.92;14.45;;;;;;;;;;5033738;28;20035;-61
2023/12/09 04:45:02;;;;;;;35.47;13.63;;;;;;;;;;5034207;28;20101;-61
2023/12/09 04:47:28;;;;;;;35.92;13.75;;;;;;;;;;5033864;28;20477;-60
2023/12/09 04:49:53;;;;;;;33.80;13.50;;;;;;;;;;5034001;28;20071;-60
2023/12/09 04:52:18;;;;;;;32.33;13.40;;;;;;;;;;5031452;28;20452;-60
2023/12/09 04:54:43;;;;;;;33.90;13.85;;;;;;;;;;5016684;28;20382;-60
2023/12/09 04:57:08;;;;;;;33.72;12.93;;;;;;;;;;5013895;28;20072;-61
2023/12/09 04:59:33;;;;;;;31.30;12.93;;;;;;;;;;5020993;28;20064;-60
2023/12/09 05:01:59;;;;;;;31.27;13.07;;;;;;;;;;5020506;28;20030;-60
2023/12/09 05:04:24;;;;;;;33.20;13.52;;;;;;;;;;5013777;28;20026;-61
2023/12/09 05:06:49;;;;;;;34.67;13.25;;;;;;;;;;5013954;28;20058;-60
2023/12/09 05:09:14;;;;;;;38.85;13.93;;;;;;;;;;5014759;28;20026;-61
2023/12/09 05:11:39;;;;;;;32.58;12.98;;;;;;;;;;5033099;28;20095;-61
2023/12/09 05:14:05;;;;;;;32.10;13.55;;;;;;;;;;5033778;28;20025;-61
2023/12/09 05:16:30;;;;;;;33.85;13.18;;;;;;;;;;5033472;28;20431;-60
2023/12/09 05:18:55;;;;;;;32.45;13.93;;;;;;;;;;5033321;28;20026;-61
2023/12/09 05:21:20;;;;;;;33.13;13.03;;;;;;;;;;5032674;28;20029;-60
2023/12/09 05:23:46;;;;;;;32.90;13.57;;;;;;;;;;5033558;28;20025;-61
2023/12/09 05:26:20;;;;;;;33.63;12.57;;;;;;;;;;5033721;28;20104;-61
2023/12/09 05:28:45;;;;;;;32.00;12.55;;;;;;;;;;5033394;28;20025;-60
2023/12/09 05:31:10;;;;;;;34.33;14.43;;;;;;;;;;5031413;28;20385;-61
2023/12/09 05:33:35;;;;;;;32.33;13.80;;;;;;;;;;5033308;28;20037;-61
2023/12/09 05:36:00;;;;;;;34.53;12.77;;;;;;;;;;5032859;28;20033;-61
2023/12/09 05:38:26;;;;;;;33.88;12.88;;;;;;;;;;5016906;28;20460;-60
2023/12/09 05:40:51;;;;;;;32.60;13.80;;;;;;;;;;5014208;28;20051;-60
2023/12/09 05:43:16;;;;;;;35.72;13.98;;;;;;;;;;5019051;28;20458;-60
2023/12/09 05:45:41;;;;;;;33.92;12.05;;;;;;;;;;5013208;28;20025;-61
2023/12/09 05:48:06;;;;;;;35.40;12.38;;;;;;;;;;5019063;28;20034;-61
2023/12/09 05:50:31;;;;;;;30.30;12.50;;;;;;;;;;5032461;28;20049;-61
2023/12/09 05:52:56;;;;;;;37.60;13.38;;;;;;;;;;5032407;28;20030;-61
2023/12/09 05:55:21;;;;;;;31.08;12.35;;;;;;;;;;5033095;28;20029;-61
2023/12/09 05:57:47;;;;;;;34.38;13.90;;;;;;;;;;5032380;28;20083;-60
2023/12/09 06:00:12;;;;;;;33.55;13.93;;;;;;;;;;5031127;28;20504;-61
2023/12/09 06:02:38;;;;;;;34.47;13.45;;;;;;;;;;5032446;28;20060;-61
2023/12/09 06:05:04;;;;;;;38.17;14.23;;;;;;;;;;5022409;28;20026;-61
2023/12/09 06:07:29;;;;;;;37.78;14.30;;;;;;;;;;5012753;28;20025;-62
2023/12/09 06:09:54;;;;;;;36.85;14.68;;;;;;;;;;5029821;28;20024;-61
2023/12/09 06:12:19;;;;;;;37.40;14.10;;;;;;;;;;5034741;28;20041;-60
2023/12/09 06:14:45;;;;;;;34.87;13.43;;;;;;;;;;5038741;28;20440;-61
2023/12/09 06:17:10;;;;;;;33.40;13.35;;;;;;;;;;5044512;28;20089;-61
2023/12/09 06:19:35;;;;;;;33.90;13.65;;;;;;;;;;5046168;28;20017;-61
2023/12/09 06:22:00;;;;;;;31.63;13.55;;;;;;;;;;5050704;28;20101;-61
2023/12/09 06:24:25;;;;;;;32.03;11.73;;;;;;;;;;5043909;28;20091;-61
2023/12/09 06:26:50;;;;;;;34.13;14.10;;;;;;;;;;5032645;28;20044;-61
2023/12/09 06:29:15;;;;;;;32.13;13.20;;;;;;;;;;5030834;28;20013;-61
2023/12/09 06:31:41;;;;;;;33.73;13.73;;;;;;;;;;5031743;28;20454;-60
2023/12/09 06:34:06;;;;;;;34.88;13.73;;;;;;;;;;5031770;28;20539;-61
2023/12/09 06:36:31;;;;;;;36.50;14.23;;;;;;;;;;5013584;28;20034;-61
2023/12/09 06:38:56;;;;;;;33.80;13.68;;;;;;;;;;5012086;28;20144;-61
2023/12/09 06:41:21;;;;;;;35.20;12.82;;;;;;;;;;5011612;28;20024;-61
2023/12/09 06:43:46;;;;;;;30.80;12.57;;;;;;;;;;5012347;28;20026;-61
2023/12/09 06:46:11;;;;;;;34.92;12.93;;;;;;;;;;5011254;28;20022;-62
2023/12/09 06:48:38;;;;;;;34.70;14.03;;;;;;;;;;5012180;28;20062;-61
2023/12/09 06:51:03;;;;;;;32.45;12.25;;;;;;;;;;5011759;28;20032;-61
2023/12/09 06:53:28;;;;;;;36.50;14.20;;;;;;;;;;5011598;28;20116;-61
2023/12/09 06:55:53;;;;;;;35.35;13.98;;;;;;;;;;5011762;28;20036;-61
2023/12/09 06:58:19;;;;;;;36.80;13.68;;;;;;;;;;5012479;28;20032;-61
2023/12/09 07:00:46;;;;;;;32.30;13.30;;;;;;;;;;5016543;28;20525;-61
2023/12/09 07:03:11;;;;;;;34.85;13.20;;;;;;;;;;5029786;28;20060;-60
2023/12/09 07:05:36;;;;;;;36.30;13.40;;;;;;;;;;5031779;28;20662;-61
2023/12/09 07:08:03;;;;;;;36.17;14.23;;;;;;;;;;5031681;28;20029;-60
2023/12/09 07:10:28;;;;;;;38.45;13.95;;;;;;;;;;5031702;28;20021;-60
2023/12/09 07:12:53;;;;;;;37.30;13.87;;;;;;;;;;5031579;28;20045;-61
2023/12/09 07:15:18;;;;;;;37.38;14.15;;;;;;;;;;5032354;28;20547;-61
2023/12/09 07:17:43;;;;;;;36.60;13.48;;;;;;;;;;5032356;28;20057;-61
2023/12/09 07:20:09;;;;;;;39.65;14.27;;;;;;;;;;5031420;28;20354;-61
2023/12/09 07:22:34;;;;;;;37.00;13.68;;;;;;;;;;5028660;28;20049;-60
2023/12/09 07:25:00;;;;;;;37.27;13.83;;;;;;;;;;5011322;28;20057;-60
2023/12/09 07:27:25;;;;;;;36.83;13.90;;;;;;;;;;5011986;28;20026;-60
2023/12/09 07:29:50;;;;;;;33.97;13.18;;;;;;;;;;5011412;28;20359;-60
2023/12/09 07:32:15;;;;;;;36.72;13.77;;;;;;;;;;5010458;28;20026;-60
2023/12/09 07:34:41;;;;;;;35.75;13.25;;;;;;;;;;5011143;28;20013;-60
2023/12/09 07:37:06;;;;;;;36.78;14.05;;;;;;;;;;5010872;28;20065;-60
2023/12/09 07:39:31;;;;;;;37.83;13.70;;;;;;;;;;5011357;28;20053;-60
2023/12/09 07:41:57;;;;;;;33.03;12.55;;;;;;;;;;5010640;28;20040;-60
2023/12/09 07:44:22;;;;;;;35.70;13.20;;;;;;;;;;5011185;28;20060;-60
2023/12/09 07:46:47;;;;;;;35.70;12.97;;;;;;;;;;5026066;28;20109;-60
2023/12/09 07:49:12;;;;;;;38.55;14.13;;;;;;;;;;5011198;28;20022;-60
2023/12/09 07:51:37;;;;;;;32.10;13.47;;;;;;;;;;5010360;28;20108;-61
2023/12/09 07:54:03;;;;;;;39.72;13.57;;;;;;;;;;5011344;28;20378;-61
2023/12/09 07:56:28;;;;;;;33.55;11.80;;;;;;;;;;5010851;28;20038;-60
2023/12/09 07:58:53;;;;;;;36.33;12.82;;;;;;;;;;5011046;28;20052;-60
2023/12/09 08:01:19;;;;;;;34.42;13.35;;;;;;;;;;5012955;28;20033;-61
2023/12/09 08:03:44;;;;;;;34.30;13.73;;;;;;;;;;5015223;28;20025;-61
2023/12/09 08:06:11;;;;;;;35.03;12.20;;;;;;;;;;5030583;28;20048;-61
2023/12/09 08:08:36;;;;;;;37.55;13.70;;;;;;;;;;5030461;28;20036;-60
2023/12/09 08:11:03;;;;;;;37.90;14.10;;;;;;;;;;5030189;28;20462;-60
2023/12/09 08:13:28;;;;;;;35.83;13.43;;;;;;;;;;5030465;28;20045;-60
2023/12/09 08:15:53;;;;;;;31.83;12.27;;;;;;;;;;5030580;28;20037;-60
2023/12/09 08:18:18;;;;;;;35.30;13.52;;;;;;;;;;5030354;28;20026;-61
2023/12/09 08:20:43;;;;;;;33.88;13.15;;;;;;;;;;5030110;28;20021;-60
2023/12/09 08:23:08;;;;;;;29.92;12.77;;;;;;;;;;5030091;28;20108;-60
2023/12/09 08:25:33;;;;;;;32.27;12.43;;;;;;;;;;5030569;28;20498;-61
2023/12/09 08:27:59;;;;;;;33.90;13.48;;;;;;;;;;5030901;28;20112;-61
2023/12/09 08:30:24;;;;;;;33.53;12.87;;;;;;;;;;5030119;28;20032;-61
2023/12/09 08:32:49;;;;;;;35.23;14.03;;;;;;;;;;5030051;28;20021;-61
2023/12/09 08:35:14;;;;;;;36.20;13.48;;;;;;;;;;5030397;28;20048;-60
2023/12/09 08:37:39;;;;;;;37.72;12.82;;;;;;;;;;5027113;28;20489;-61
2023/12/09 08:40:09;;;;;;;36.23;12.83;;;;;;;;;;5026937;28;20025;-61
2023/12/09 08:42:38;;;;;;;32.00;13.60;;;;;;;;;;5031279;28;20492;-61
2023/12/09 08:45:04;;;;;;;30.30;12.27;;;;;;;;;;5032000;28;20036;-60
2023/12/09 08:47:29;;;;;;;33.95;13.43;;;;;;;;;;5034237;28;20021;-60
2023/12/09 08:49:54;;;;;;;36.75;14.98;;;;;;;;;;5034822;28;20022;-61
2023/12/09 08:52:21;;;;;;;32.17;13.00;;;;;;;;;;5038005;28;20022;-61
2023/12/09 08:54:46;;;;;;;34.35;13.35;;;;;;;;;;5039538;28;20072;-61
2023/12/09 08:57:12;;;;;;;36.13;12.90;;;;;;;;;;5031042;28;20033;-60
2023/12/09 08:59:39;;;;;;;36.38;13.88;;;;;;;;;;5030134;28;20068;-60
2023/12/09 09:02:04;;;;;;;35.45;13.40;;;;;;;;;;5029409;28;20024;-63
2023/12/09 09:04:29;;;;;;;35.10;12.50;;;;;;;;;;5027098;28;20022;-61
2023/12/09 09:06:54;;;;;;;35.78;14.32;;;;;;;;;;5016514;28;20496;-60
2023/12/09 09:09:19;;;;;;;33.45;12.98;;;;;;;;;;5030619;28;20025;-60
2023/12/09 09:11:45;;;;;;;33.33;11.85;;;;;;;;;;5033244;28;20032;-61
2023/12/09 09:14:10;;;;;;;40.08;13.27;;;;;;;;;;5033567;28;20493;-61
2023/12/09 09:16:35;;;;;;;35.75;13.30;;;;;;;;;;5033480;28;20029;-60
2023/12/09 09:19:00;;;;;;;34.70;12.80;;;;;;;;;;5032215;28;20025;-61
2023/12/09 09:21:26;;;;;;;35.45;12.82;;;;;;;;;;5031699;28;20362;-61
2023/12/09 09:23:51;;;;;;;36.03;13.20;;;;;;;;;;5033799;28;20652;-61
2023/12/09 09:26:16;;;;;;;34.70;12.67;;;;;;;;;;5033547;28;20509;-60
2023/12/09 09:28:41;;;;;;;38.97;14.30;;;;;;;;;;5033535;28;20017;-60
2023/12/09 09:31:06;;;;;;;32.38;12.75;;;;;;;;;;5033246;28;20033;-61
2023/12/09 09:33:31;;;;;;;32.40;12.90;;;;;;;;;;5033356;28;20413;-61
2023/12/09 09:35:57;;;;;;;33.88;13.13;;;;;;;;;;5033151;28;20444;-61
2023/12/09 09:38:22;;;;;;;33.47;12.48;;;;;;;;;;5033045;28;20041;-61
2023/12/09 09:40:47;;;;;;;32.78;12.55;;;;;;;;;;5032503;28;20028;-61
2023/12/09 09:43:15;;;;;;;29.80;12.52;;;;;;;;;;5031471;28;20025;-60
2023/12/09 09:45:43;;;;;;;34.08;12.93;;;;;;;;;;5032683;28;20037;-61
2023/12/09 09:48:10;;;;;;;36.90;13.15;;;;;;;;;;5032904;28;20053;-61
2023/12/09 09:50:41;;;;;;;40.47;13.63;;;;;;;;;;5032656;28;20100;-60
2023/12/09 09:53:07;;;;;;;35.45;13.60;;;;;;;;;;5032846;28;20015;-61
2023/12/09 09:55:32;;;;;;;38.45;14.25;;;;;;;;;;5033048;28;20036;-61
2023/12/09 09:57:58;;;;;;;37.85;15.00;;;;;;;;;;5033247;28;20045;-61
2023/12/09 10:00:23;;;;;;;35.17;13.27;;;;;;;;;;5032502;28;20374;-60
2023/12/09 10:02:49;;;;;;;38.75;14.10;;;;;;;;;;5032568;28;20018;-60
2023/12/09 10:05:17;;;;;;;40.10;14.38;;;;;;;;;;5031139;28;20093;-60
2023/12/09 10:07:43;;;;;;;35.70;13.18;;;;;;;;;;5032763;28;20021;-61
2023/12/09 10:10:09;;;;;;;33.20;13.27;;;;;;;;;;5032591;28;20029;-61
2023/12/09 10:12:35;;;;;;;36.70;14.02;;;;;;;;;;5033082;28;20020;-61
2023/12/09 10:15:01;;;;;;;36.72;14.38;;;;;;;;;;5034445;28;20014;-61
2023/12/09 10:17:26;;;;;;;34.05;13.38;;;;;;;;;;5035533;28;20021;-61
2023/12/09 10:19:54;;;;;;;39.72;15.15;;;;;;;;;;5042600;28;20021;-61
2023/12/09 10:22:19;;;;;;;36.22;13.43;;;;;;;;;;5041697;28;20476;-61
2023/12/09 10:24:50;;;;;;;35.58;12.95;;;;;;;;;;5042901;28;20120;-61
2023/12/09 10:27:18;;;;;;;36.55;14.00;;;;;;;;;;5038303;28;20049;-60
2023/12/09 10:29:43;;;;;;;34.08;13.23;;;;;;;;;;5034293;28;20029;-61
2023/12/09 10:32:08;;;;;;;38.25;15.18;;;;;;;;;;5016005;28;20088;-60
2023/12/09 10:34:33;;;;;;;34.57;13.27;;;;;;;;;;5012201;28;20064;-61
2023/12/09 10:36:59;;;;;;;34.90;13.52;;;;;;;;;;5012125;28;20072;-60
2023/12/09 10:39:25;;;;;;;39.63;13.13;;;;;;;;;;5012403;28;20026;-61
2023/12/09 10:41:50;;;;;;;37.95;16.38;;;;;;;;;;5011624;28;20428;-61
2023/12/09 10:44:15;;;;;;;34.88;14.13;;;;;;;;;;5011969;28;20025;-60
2023/12/09 10:46:41;;;;;;;35.35;13.23;;;;;;;;;;5012015;28;20133;-60
2023/12/09 10:49:07;;;;;;;34.38;13.23;;;;;;;;;;5011851;28;20030;-60
2023/12/09 10:51:32;;;;;;;31.02;12.55;;;;;;;;;;5018750;28;20064;-60
2023/12/09 10:53:57;;;;;;;37.05;13.07;;;;;;;;;;5031706;28;20029;-61
2023/12/09 10:56:22;;;;;;;37.53;14.60;;;;;;;;;;5031311;28;20033;-61
2023/12/09 10:58:48;;;;;;;36.53;13.00;;;;;;;;;;5031127;28;20021;-61
2023/12/09 11:01:15;;;;;;;34.90;13.00;;;;;;;;;;5029308;28;20033;-61
2023/12/09 11:03:40;;;;;;;34.35;13.02;;;;;;;;;;5030008;28;20018;-61
2023/12/09 11:06:06;;;;;;;33.67;12.93;;;;;;;;;;5030256;28;20381;-61
2023/12/09 11:08:32;;;;;;;30.52;12.45;;;;;;;;;;5014416;28;20034;-61
2023/12/09 11:10:58;;;;;;;32.65;12.40;;;;;;;;;;5013908;28;20029;-60
2023/12/09 11:13:32;;;;;;;33.65;12.82;;;;;;;;;;5011255;28;20497;-61
2023/12/09 11:16:10;;;;;;;36.10;13.70;;;;;;;;;;5013919;28;20094;-61
2023/12/09 11:18:35;;;;;;;31.48;11.38;;;;;;;;;;5012359;28;20014;-61
2023/12/09 11:21:00;;;;;;;32.25;17.25;;;;;;;;;;5012195;28;20029;-61
2023/12/09 11:23:26;;;;;;;31.17;12.52;;;;;;;;;;5013608;28;20486;-61
2023/12/09 11:25:51;;;;;;;31.48;13.02;;;;;;;;;;5013362;28;20025;-61
2023/12/09 11:28:16;;;;;;;32.92;12.73;;;;;;;;;;5012618;28;20034;-61
2023/12/09 11:30:42;;;;;;;35.10;14.93;;;;;;;;;;5011135;28;20443;-61
2023/12/09 11:33:08;;;;;;;33.20;13.55;;;;;;;;;;5010630;28;20071;-61
2023/12/09 11:35:34;;;;;;;32.67;13.55;;;;;;;;;;5011179;28;20026;-61
2023/12/09 11:38:00;;;;;;;32.13;11.90;;;;;;;;;;5011100;28;20049;-61
2023/12/09 11:40:29;;;;;;;29.38;11.68;;;;;;;;;;5011027;28;20065;-61
2023/12/09 11:42:55;;;;;;;30.08;11.80;;;;;;;;;;5010555;28;20107;-61
2023/12/09 11:45:21;;;;;;;28.52;11.20;;;;;;;;;;5010540;28;20478;-61
2023/12/09 11:47:46;;;;;;;29.52;11.65;;;;;;;;;;5011297;28;20032;-61
2023/12/09 11:50:13;;;;;;;30.98;11.63;;;;;;;;;;5025904;28;20022;-61
2023/12/09 11:52:41;;;;;;;27.92;12.30;;;;;;;;;;5010238;28;20021;-61
2023/12/09 11:55:10;;;;;;;31.83;12.52;;;;;;;;;;5026116;28;20018;-60
2023/12/09 11:57:35;;;;;;;26.15;11.23;;;;;;;;;;5010952;28;20494;-61
2023/12/09 12:00:00;;;;;;;33.10;13.97;;;;;;;;;;5010595;28;20022;-61
2023/12/09 12:02:25;;;;;;;26.35;11.25;;;;;;;;;;5012784;28;20030;-60
2023/12/09 12:04:50;;;;;;;29.05;11.35;;;;;;;;;;5030724;28;20021;-61
2023/12/09 12:07:15;;;;;;;26.90;10.60;;;;;;;;;;5028784;28;20021;-60
2023/12/09 12:09:41;;;;;;;28.07;13.47;;;;;;;;;;5011330;28;20018;-60
2023/12/09 12:12:07;;;;;;;30.30;11.95;;;;;;;;;;5009928;28;20048;-60
2023/12/09 12:14:32;;;;;;;29.27;11.50;;;;;;;;;;5010800;28;20482;-60
2023/12/09 12:17:00;;;;;;;27.57;10.70;;;;;;;;;;5010673;28;20084;-60
2023/12/09 12:19:25;;;;;;;28.95;10.95;;;;;;;;;;5010411;28;20026;-60
2023/12/09 12:21:54;;;;;;;27.15;10.57;;;;;;;;;;5010099;28;20029;-61
2023/12/09 12:24:19;;;;;;;27.50;9.98;;;;;;;;;;5010539;28;20030;-61
2023/12/09 12:26:44;;;;;;;23.98;9.00;;;;;;;;;;5010573;28;20064;-61
2023/12/09 12:29:09;;;;;;;25.27;9.70;;;;;;;;;;5010738;28;20033;-61
2023/12/09 12:31:34;;;;;;;27.07;9.97;;;;;;;;;;5009701;28;20050;-61
2023/12/09 12:34:12;;;;;;;29.13;10.77;;;;;;;;;;5027482;28;20024;-61
2023/12/09 12:36:37;;;;;;;24.80;10.77;;;;;;;;;;5030200;28;21005;-60
2023/12/09 12:39:04;;;;;;;23.23;10.43;;;;;;;;;;5030306;28;20022;-61
2023/12/09 12:41:30;;;;;;;29.05;10.98;;;;;;;;;;5029685;28;20022;-60
2023/12/09 12:43:55;;;;;;;26.42;10.57;;;;;;;;;;5030359;28;20036;-60
2023/12/09 12:46:20;;;;;;;24.52;10.07;;;;;;;;;;5033910;28;20485;-60
2023/12/09 12:48:45;;;;;;;25.37;10.27;;;;;;;;;;5033944;28;20026;-60
2023/12/09 12:51:10;;;;;;;25.33;9.27;;;;;;;;;;5033540;28;20104;-60
2023/12/09 12:53:36;;;;;;;21.00;8.82;;;;;;;;;;5033846;28;20367;-59
2023/12/09 12:56:01;;;;;;;22.07;9.03;;;;;;;;;;5029088;28;20026;-61
2023/12/09 12:58:26;;;;;;;23.85;8.65;;;;;;;;;;5013926;28;20029;-60
2023/12/09 13:00:53;;;;;;;23.83;10.17;;;;;;;;;;5020752;28;20025;-60
2023/12/09 13:03:19;;;;;;;25.00;9.50;;;;;;;;;;5033360;28;20044;-61
2023/12/09 13:05:44;;;;;;;21.07;10.33;;;;;;;;;;5033752;28;20386;-61
2023/12/09 13:08:09;;;;;;;22.92;9.40;;;;;;;;;;5031778;28;20100;-60
2023/12/09 13:10:34;;;;;;;20.88;9.65;;;;;;;;;;5033402;28;20018;-60
2023/12/09 13:12:59;;;;;;;19.60;8.90;;;;;;;;;;5033019;28;20014;-59
2023/12/09 13:15:27;;;;;;;19.25;7.78;;;;;;;;;;5032340;28;20025;-60
2023/12/09 13:17:52;;;;;;;19.42;8.27;;;;;;;;;;5034072;28;20515;-60
2023/12/09 13:20:17;;;;;;;18.87;7.13;;;;;;;;;;5033562;28;20072;-60
2023/12/09 13:22:42;;;;;;;17.38;7.07;;;;;;;;;;5034652;28;20021;-61
2023/12/09 13:25:09;;;;;;;16.33;6.77;;;;;;;;;;5036627;28;20025;-61
2023/12/09 13:27:36;;;;;;;18.83;7.07;;;;;;;;;;5038795;28;20025;-61
2023/12/09 13:30:04;;;;;;;20.23;8.32;;;;;;;;;;5040125;28;20021;-61
2023/12/09 13:32:29;;;;;;;18.17;7.90;;;;;;;;;;5036435;28;20037;-61
2023/12/09 13:34:54;;;;;;;18.67;7.63;;;;;;;;;;5033415;28;20481;-60
2023/12/09 13:37:20;;;;;;;17.42;7.43;;;;;;;;;;5033033;28;20034;-60
2023/12/09 13:39:45;;;;;;;19.77;7.90;;;;;;;;;;5032912;28;20040;-61
2023/12/09 13:42:12;;;;;;;18.33;7.38;;;;;;;;;;5032560;28;20026;-60
2023/12/09 13:44:38;;;;;;;;;;;;;;;;;;5033693;28;20127;-60
2023/12/09 13:47:03;;;;;;;15.18;7.20;;;;;;;;;;5033875;28;19905;-60
2023/12/09 13:49:28;;;;;;;12.80;5.27;;;;;;;;;;5029251;28;20017;-60
2023/12/09 13:51:53;;;;;;;17.45;14.55;;;;;;;;;;5015017;28;20097;-60
2023/12/09 13:54:22;;;;;;;14.30;6.10;;;;;;;;;;5021905;28;20086;-60
2023/12/09 13:56:47;;;;;;;14.38;6.53;;;;;;;;;;5022547;28;20044;-60
2023/12/09 13:59:12;;;;;;;14.77;5.85;;;;;;;;;;5028368;28;20029;-60
2023/12/09 14:01:38;;;;;;;17.65;6.70;;;;;;;;;;5031982;28;20429;-63
2023/12/09 14:04:05;;;;;;;18.48;6.72;;;;;;;;;;5029074;28;20079;-60
2023/12/09 14:06:30;;;;;;;17.77;7.18;;;;;;;;;;5032811;28;20030;-60
2023/12/09 14:08:55;;;;;;;19.23;8.00;;;;;;;;;;5032413;28;20068;-61